CW5193 New Chelsea NF CA current weather conditions

sailwx.info

Wind from 059 at 9 knots gusting 11

Air temperature -0.0° C
Dewpoint -3.9° C

Last reported at 2015-Apr-21 22:41 UTC.
Time now 2015-Apr-21 23:29 UTC

Location: N 48°02' W 053°13'.
View on Google Maps.

See reports from other nearby stations

  
Tides and Currents Weather Stations Pressure Air Temp Water Temp Dewpoint Dewpoint Depression Visibility Wind Speed Wind Dir Waves Ship Positions
date/time (UTC)wind fromknots sea level pressurealtimeterstation pressurevisibilityair tempwater tempwave heightnotes
2015-Apr-21 22:41 059 9 gusting 11 -0.0
2015-Apr-21 22:31 059 6 gusting 9 -0.0
2015-Apr-21 22:21 049 6 gusting 11 -0.0
2015-Apr-21 22:11 049 6 gusting 11 0.6
2015-Apr-21 22:01 043 8 gusting 12 0.6
2015-Apr-21 21:51 038 5 gusting 11 0.6
2015-Apr-21 21:41 033 7 gusting 11 0.6
2015-Apr-21 21:31 047 10 gusting 13 0.6
2015-Apr-21 21:21 036 8 gusting 12 1.1
2015-Apr-21 21:11 060 11 gusting 13 1.1
2015-Apr-21 21:01 060 9 gusting 11 1.1
2015-Apr-21 20:51 057 8 gusting 9 1.1
2015-Apr-21 20:41 054 6 gusting 9 1.1
2015-Apr-21 20:31 063 5 gusting 9 1.1
2015-Apr-21 20:21 057 5 gusting 7 1.1
2015-Apr-21 20:11 065 6 gusting 10 1.1
2015-Apr-21 20:01 060 8 gusting 11 1.1
2015-Apr-21 19:51 063 8 gusting 13 1.1
2015-Apr-21 19:41 065 10 gusting 13 1.7
2015-Apr-21 19:31 067 11 gusting 14 1.1
2015-Apr-21 19:21 064 13 gusting 15 1.1
2015-Apr-21 19:11 063 12 gusting 16 1.1
2015-Apr-21 19:01 066 14 gusting 16 1.1
2015-Apr-21 18:51 062 13 gusting 13 1.7
2015-Apr-21 18:41 060 13 gusting 14 1.7
2015-Apr-21 18:31 063 13 gusting 15 1.7
2015-Apr-21 18:21 060 13 gusting 15 1.7
2015-Apr-21 18:11 061 13 gusting 15 1.7
2015-Apr-21 18:01 057 13 gusting 15 1.7
2015-Apr-21 17:51 057 12 gusting 15 1.7
2015-Apr-21 17:41 063 13 gusting 16 1.7
2015-Apr-21 17:31 057 10 gusting 13 1.7
2015-Apr-21 17:21 061 10 gusting 13 2.2
2015-Apr-21 17:11 064 11 gusting 13 1.7
2015-Apr-21 17:01 055 10 gusting 13 1.7
2015-Apr-21 16:51 061 9 gusting 12 1.7
2015-Apr-21 16:41 055 9 gusting 14 1.7
2015-Apr-21 16:31 062 13 gusting 14 1.7
2015-Apr-21 16:21 065 11 gusting 13 1.7
2015-Apr-21 16:11 051 7 gusting 11 2.2
2015-Apr-21 16:01 044 8 gusting 13 2.2
2015-Apr-21 15:51 061 10 gusting 12 2.2
2015-Apr-21 15:41 057 9 gusting 12 2.2
2015-Apr-21 15:31 035 7 gusting 12 2.2
2015-Apr-21 15:21 064 8 gusting 13 1.7
2015-Apr-21 15:11 047 10 gusting 13 1.7
2015-Apr-21 15:01 040 11 gusting 13 1.7
2015-Apr-21 14:51 042 8 gusting 12 1.7
2015-Apr-21 14:41 045 8 gusting 12 1.7
2015-Apr-21 14:31 037 9 gusting 13 1.7
2015-Apr-21 14:21 042 10 gusting 13 1.7
2015-Apr-21 14:11 028 10 gusting 13 1.7
2015-Apr-21 14:01 027 8 gusting 13 1.7
2015-Apr-21 13:51 048 11 gusting 16 1.1
2015-Apr-21 13:41 042 13 gusting 18 1.1
2015-Apr-21 13:31 046 13 gusting 16 1.1
2015-Apr-21 13:21 038 12 gusting 14 1.1
2015-Apr-21 13:11 045 8 gusting 13 1.1
2015-Apr-21 13:01 046 9 gusting 12 1.1
2015-Apr-21 12:51 047 10 gusting 13 1.1
2015-Apr-21 12:41 024 6 gusting 11 0.6
2015-Apr-21 12:31 049 9 gusting 13 0.6
2015-Apr-21 12:21 044 6 gusting 11 0.6
2015-Apr-21 12:11 051 8 gusting 12 -0.0
2015-Apr-21 12:01 039 9 gusting 13 -0.0
2015-Apr-21 11:51 044 8 gusting 13 -0.0
2015-Apr-21 11:41 026 7 gusting 13 -0.0
2015-Apr-21 11:31 038 7 gusting 12 -0.6
2015-Apr-21 11:21 042 10 gusting 14 -0.6
2015-Apr-21 11:11 047 10 gusting 15 -0.6
2015-Apr-21 11:01 037 12 gusting 16 -1.1
2015-Apr-21 10:51 040 13 gusting 17 -1.1
2015-Apr-21 10:41 040 9 gusting 12 -1.1
2015-Apr-21 10:31 016 6 gusting 12 -1.7
2015-Apr-21 10:21 009 5 gusting 12 -1.7
2015-Apr-21 10:11 009 6 gusting 14 -1.7
2015-Apr-21 10:01 042 8 gusting 14 -1.7
2015-Apr-21 09:51 011 7 gusting 12 -1.7
2015-Apr-21 09:41 028 6 gusting 11 -1.7
2015-Apr-21 09:31 013 6 gusting 13 -1.1
2015-Apr-21 09:21 028 6 gusting 11 -1.1
2015-Apr-21 09:11 010 6 gusting 12 -1.1
2015-Apr-21 09:01 011 7 gusting 14 -1.7
2015-Apr-21 08:51 027 7 gusting 13 -1.7
2015-Apr-21 08:41 022 7 gusting 13 -1.7
2015-Apr-21 08:31 048 7 gusting 12 -1.7
2015-Apr-21 08:21 044 10 gusting 13 -1.7
2015-Apr-21 08:11 036 7 gusting 12 -1.7
2015-Apr-21 08:01 032 5 gusting 11 -2.2
2015-Apr-21 07:51 055 6 gusting 9 -2.2
2015-Apr-21 07:41 018 5 gusting 14 -2.2
2015-Apr-21 07:31 013 6 gusting 11 -2.2
2015-Apr-21 07:21 360 7 gusting 14 -2.2
2015-Apr-21 07:11 029 9 gusting 14 -2.2
2015-Apr-21 07:01 014 11 gusting 14 -2.2
2015-Apr-21 06:51 019 9 gusting 17 -2.2
2015-Apr-21 06:41 005 11 gusting 15 -2.2
2015-Apr-21 06:31 046 9 gusting 17 -2.2
2015-Apr-21 06:21 022 11 gusting 15 -2.2
2015-Apr-21 06:11 041 11 gusting 15 -2.2
2015-Apr-21 06:01 029 9 gusting 13 -2.2
2015-Apr-21 05:51 360 6 gusting 13 -2.2
2015-Apr-21 05:41 041 6 gusting 13 -2.2
2015-Apr-21 05:31 025 6 gusting 13 -2.2
2015-Apr-21 05:21 355 4 gusting 12 -2.2
2015-Apr-21 05:11 360 5 gusting 14 -2.2
2015-Apr-21 05:01 024 10 gusting 15 -2.2
2015-Apr-21 04:51 023 7 gusting 18 -1.7
2015-Apr-21 04:41 013 10 gusting 17 -1.7
2015-Apr-21 04:31 022 6 gusting 16 -1.7
2015-Apr-21 04:21 338 7 gusting 14 -1.7
2015-Apr-21 04:11 021 12 gusting 17 -1.7
2015-Apr-21 04:01 032 11 gusting 15 -1.7
2015-Apr-21 03:51 025 9 gusting 18 -1.7
2015-Apr-21 03:41 039 6 gusting 18 -1.7
2015-Apr-21 03:31 018 8 gusting 16 -1.7
2015-Apr-21 03:21 040 10 gusting 19 -1.7
2015-Apr-21 03:11 041 13 gusting 18 -1.7
2015-Apr-21 03:01 048 10 gusting 16 -1.7
2015-Apr-21 02:51 009 12 gusting 16 -1.1
2015-Apr-21 02:41 005 13 gusting 16 -1.1
2015-Apr-21 02:31 040 13 gusting 21 -1.1
2015-Apr-21 02:21 029 13 gusting 19 -1.1
2015-Apr-21 02:11 005 12 gusting 17 -1.1
2015-Apr-21 02:01 019 10 gusting 17 -1.1
2015-Apr-21 01:51 036 12 gusting 19 -1.1
2015-Apr-21 01:41 017 13 gusting 19 -1.1
2015-Apr-21 01:31 052 10 gusting 17 -1.1
2015-Apr-21 01:21 036 12 gusting 17 -1.1
2015-Apr-21 01:11 040 11 gusting 18 -0.6
2015-Apr-21 01:01 038 9 gusting 13 -1.1
2015-Apr-21 00:51 032 8 gusting 15 -1.1
2015-Apr-21 00:41 013 6 gusting 13 -1.1
2015-Apr-21 00:31 018 6 gusting 14 -1.1
2015-Apr-21 00:21 027 10 gusting 16 -0.6
2015-Apr-21 00:11 026 9 gusting 15 -1.1
2015-Apr-21 00:01 032 11 gusting 17 -0.6
2015-Apr-20 23:51 012 13 gusting 15 -0.6
2015-Apr-20 23:41 044 12 gusting 19 -0.6
2015-Apr-20 23:31 046 15 gusting 21 -0.6
2015-Apr-20 23:21 032 17 gusting 20 -0.6
2015-Apr-20 23:11 044 18 gusting 22 -0.6
2015-Apr-20 23:01 032 18 gusting 22 -0.6
2015-Apr-20 22:51 040 19 gusting 24 -0.6
2015-Apr-20 22:41 042 18 gusting 23 -0.6
2015-Apr-20 22:31 029 19 gusting 24 -0.0
2015-Apr-20 22:21 033 18 gusting 20 -0.0
2015-Apr-20 22:11 034 15 gusting 22 -0.0
2015-Apr-20 22:01 037 18 gusting 22 -0.0
2015-Apr-20 21:51 040 14 gusting 19 -0.0
2015-Apr-20 21:41 046 15 gusting 22 -0.0
2015-Apr-20 21:31 034 19 gusting 25 -0.0
2015-Apr-20 21:21 038 20 gusting 24 -0.0
2015-Apr-20 21:11 049 18 gusting 26 -0.0
2015-Apr-20 21:01 033 16 gusting 19 -0.0
2015-Apr-20 20:51 034 17 gusting 24 -0.0
2015-Apr-20 20:41 044 14 gusting 20 -0.0
2015-Apr-20 20:31 051 14 gusting 22 -0.0
2015-Apr-20 20:21 034 18 gusting 24 -0.0
2015-Apr-20 20:11 025 17 gusting 23 -0.0
2015-Apr-20 20:01 051 15 gusting 21 -0.0
2015-Apr-20 19:51 032 17 gusting 23 -0.6
2015-Apr-20 19:41 052 19 gusting 26 -0.6
2015-Apr-20 19:31 033 18 gusting 24 -0.6
2015-Apr-20 19:21 028 19 gusting 24 -0.6
2015-Apr-20 19:11 038 19 gusting 23 -0.6
2015-Apr-20 19:01 046 17 gusting 22 -0.6
2015-Apr-20 18:51 034 15 gusting 23 -0.6
2015-Apr-20 18:41 045 14 gusting 24 -0.6
2015-Apr-20 18:31 035 15 gusting 25 -0.6
2015-Apr-20 18:21 057 15 gusting 26 -0.6
2015-Apr-20 18:11 025 16 gusting 26 -0.6
2015-Apr-20 18:01 040 20 gusting 26 -0.6
2015-Apr-20 17:51 042 24 gusting 26 -0.0
2015-Apr-20 17:41 016 16 gusting 26 -0.0
2015-Apr-20 17:31 022 19 gusting 26 -0.0
2015-Apr-20 17:21 041 19 gusting 24 -0.0
2015-Apr-20 17:11 041 17 gusting 24 -0.0
2015-Apr-20 17:01 041 19 gusting 23 -0.0
2015-Apr-20 16:51 036 17 gusting 22 -0.0
2015-Apr-20 16:41 040 18 gusting 22 -0.0
2015-Apr-20 16:31 041 20 gusting 26 -0.0
2015-Apr-20 16:21 036 20 gusting 25 0.6
2015-Apr-20 16:11 045 16 gusting 26 0.6
2015-Apr-20 16:01 030 21 gusting 26 0.6
2015-Apr-20 15:51 055 18 gusting 25 1.1
2015-Apr-20 15:41 062 16 gusting 24 1.1
2015-Apr-20 15:31 042 16 gusting 24 1.1
2015-Apr-20 15:21 039 19 gusting 23 1.1
2015-Apr-20 15:11 042 14 gusting 23 1.1
2015-Apr-20 15:01 039 18 gusting 24 0.6
2015-Apr-20 14:51 036 19 gusting 25 0.6
2015-Apr-20 14:41 032 17 gusting 25 0.6
2015-Apr-20 14:31 040 18 gusting 22 0.6
2015-Apr-20 14:21 047 16 gusting 21 0.6
2015-Apr-20 14:11 044 17 gusting 23 0.6
2015-Apr-20 14:01 040 16 gusting 19 0.6
2015-Apr-20 13:51 061 13 gusting 19 0.6
2015-Apr-20 13:41 052 13 gusting 19 1.1
2015-Apr-20 13:31 050 15 gusting 19 0.6
2015-Apr-20 13:21 044 9 gusting 12 0.6
2015-Apr-20 13:11 040 8 gusting 12 0.6
2015-Apr-20 13:01 049 7 gusting 11 -0.0
2015-Apr-20 12:51 042 9 gusting 11 -0.0
2015-Apr-20 12:41 044 7 gusting 12 -0.0
2015-Apr-20 12:31 048 9 gusting 13 -0.6
2015-Apr-20 12:21 040 11 gusting 13 -0.6
2015-Apr-20 12:11 046 11 gusting 14 -0.6
2015-Apr-20 12:01 043 11 gusting 14 -1.1
2015-Apr-20 11:51 040 11 gusting 15 -1.1
2015-Apr-20 11:41 037 10 gusting 15 -1.1
2015-Apr-20 11:31 034 11 gusting 16 -1.1
2015-Apr-20 11:21 047 14 gusting 18 -1.1
2015-Apr-20 11:11 044 13 gusting 17 -1.7
2015-Apr-20 11:01 026 13 gusting 16 -1.7
2015-Apr-20 10:51 360 13 gusting 15 -1.7
2015-Apr-20 10:41 045 8 gusting 14 -1.7
2015-Apr-20 10:31 041 10 gusting 13 -1.7
2015-Apr-20 10:21 041 8 gusting 13 -1.7
2015-Apr-20 10:11 025 8 gusting 13 -1.7
2015-Apr-20 10:01 054 13 gusting 15 -1.7
2015-Apr-20 09:51 045 12 gusting 15 -1.7
2015-Apr-20 09:41 043 13 gusting 14 -2.2
2015-Apr-20 09:31 039 10 gusting 16 -2.2
2015-Apr-20 09:21 052 11 gusting 15 -2.2
2015-Apr-20 09:11 052 12 gusting 15 -2.2
2015-Apr-20 09:01 047 11 gusting 17 -2.2
2015-Apr-20 08:51 059 13 gusting 16 -2.2
2015-Apr-20 08:41 059 13 gusting 15 -2.2
2015-Apr-20 08:31 062 14 gusting 17 -2.2
2015-Apr-20 08:21 060 14 gusting 17 -2.2
2015-Apr-20 08:11 049 13 gusting 17 -2.2
2015-Apr-20 08:01 046 13 gusting 16 -2.2
2015-Apr-20 07:51 044 13 gusting 17 -2.2
2015-Apr-20 07:41 051 13 gusting 15 -2.2
2015-Apr-20 07:31 057 11 gusting 15 -2.2
2015-Apr-20 07:21 059 11 gusting 15 -2.2
2015-Apr-20 07:11 042 13 gusting 15 -2.2
2015-Apr-20 07:01 044 13 gusting 15 -2.2
2015-Apr-20 06:51 063 12 gusting 14 -2.2
2015-Apr-20 06:41 028 9 gusting 13 -2.8
2015-Apr-20 06:31 040 9 gusting 13 -2.2
2015-Apr-20 06:21 041 11 gusting 13 -2.2
2015-Apr-20 06:11 036 10 gusting 13 -2.2
2015-Apr-20 06:01 044 10 gusting 13 -2.2
2015-Apr-20 05:51 057 11 gusting 15 -2.2
2015-Apr-20 05:41 073 10 gusting 13 -2.2
2015-Apr-20 05:31 069 9 gusting 13 -2.2
2015-Apr-20 05:21 063 11 gusting 13 -2.2
2015-Apr-20 05:11 045 11 gusting 13 -2.2
2015-Apr-20 05:01 044 9 gusting 13 -2.2
2015-Apr-20 04:51 037 11 gusting 13 -2.2
2015-Apr-20 04:41 056 9 gusting 12 -2.2
2015-Apr-20 04:31 066 11 gusting 13 -2.2
2015-Apr-20 04:21 062 8 gusting 14 -2.2
2015-Apr-20 04:11 061 11 gusting 14 -2.2
2015-Apr-20 04:01 064 9 gusting 13 -2.2
2015-Apr-20 03:51 056 10 gusting 13 -2.2
2015-Apr-20 03:41 059 11 gusting 14 -2.2
2015-Apr-20 03:31 065 10 gusting 13 -2.2
2015-Apr-20 03:21 065 11 gusting 13 -2.2
2015-Apr-20 03:11 058 10 gusting 14 -2.2
2015-Apr-20 03:01 057 10 gusting 13 -2.2
2015-Apr-20 02:51 069 8 gusting 13 -2.2
2015-Apr-20 02:41 067 9 gusting 14 -2.2
2015-Apr-20 02:31 061 10 gusting 13 -2.2
2015-Apr-20 02:21 053 10 gusting 13 -2.2
2015-Apr-20 02:11 071 9 gusting 14 -2.2
2015-Apr-20 02:01 055 11 gusting 13 -2.2
2015-Apr-20 01:51 074 12 gusting 13 -2.2
2015-Apr-20 01:41 061 10 gusting 13 -2.2
2015-Apr-20 01:31 065 11 gusting 16 -2.2
2015-Apr-20 01:21 060 11 gusting 13 -2.2
2015-Apr-20 01:11 075 12 gusting 14 -2.2
2015-Apr-20 01:01 059 13 gusting 14 -2.2
2015-Apr-20 00:51 064 11 gusting 16 -2.2
2015-Apr-20 00:41 060 15 gusting 17 -2.2
2015-Apr-20 00:31 064 12 gusting 14 -2.2
2015-Apr-20 00:21 069 11 gusting 15 -2.2
2015-Apr-20 00:11 069 13 gusting 16 -2.2
2015-Apr-20 00:01 061 12 gusting 16 -2.2
2015-Apr-19 23:51 068 13 gusting 17 -2.2
2015-Apr-19 23:41 071 12 gusting 16 -2.2
2015-Apr-19 23:31 061 13 gusting 15 -2.2
2015-Apr-19 23:21 068 12 gusting 15 -2.2
2015-Apr-19 23:11 068 14 gusting 16 -2.2
2015-Apr-19 23:01 069 13 gusting 14 -2.2